Time;durP1;ratioP1;P1;durP2;ratioP2;P2;SDS_P1;SDS_P2;PMS_P1;PMS_P2;Temp;Humidity;BMP_temperature;BMP_pressure;BME280_temperature;BME280_humidity;BME280_pressure;Samples;Min_cycle;Max_cycle;Signal;HPM_P1;HPM_P2
2022/12/04 00:02:22;;;;;;;114.08;41.28;;;;;;;2.02;98.19;101673.48;1808749;78;25706;-78
2022/12/04 00:04:48;;;;;;;104.53;41.13;;;;;;;2.02;98.30;101668.20;1819934;78;25736;-78
2022/12/04 00:07:14;;;;;;;94.47;40.52;;;;;;;2.00;98.29;101678.88;1802227;78;25784;-79
2022/12/04 00:09:41;;;;;;;117.13;43.08;;;;;;;1.99;98.28;101685.60;1814994;77;27932;-78
2022/12/04 00:12:07;;;;;;;108.05;42.13;;;;;;;1.97;98.47;101680.40;1835449;77;25797;-79
2022/12/04 00:14:33;;;;;;;119.00;42.23;;;;;;;1.98;98.47;101684.75;1846251;77;25776;-78
2022/12/04 00:16:59;;;;;;;97.35;38.63;;;;;;;1.97;98.46;101680.87;1829784;76;25762;-79
2022/12/04 00:19:26;;;;;;;99.92;39.10;;;;;;;1.97;98.53;101678.22;1831568;76;25754;-79
2022/12/04 00:21:52;;;;;;;114.62;38.40;;;;;;;1.95;98.50;101682.30;1819566;76;27433;-79
2022/12/04 00:24:19;;;;;;;103.22;40.75;;;;;;;1.94;98.57;101685.06;1821344;76;25816;-79
2022/12/04 00:26:45;;;;;;;107.37;38.85;;;;;;;1.93;98.60;101694.77;1823138;76;25748;-79
2022/12/04 00:29:11;;;;;;;96.35;36.35;;;;;;;1.92;98.69;101690.45;1826883;77;25805;-78
2022/12/04 00:31:39;;;;;;;119.28;42.15;;;;;;;1.93;98.85;101689.49;1829121;76;25772;-78
2022/12/04 00:34:05;;;;;;;104.45;40.50;;;;;;;1.95;98.86;101690.70;1825785;77;27442;-78
2022/12/04 00:36:32;;;;;;;94.35;35.65;;;;;;;1.94;98.82;101683.73;1786701;78;25268;-78
2022/12/04 00:38:59;;;;;;;99.07;37.60;;;;;;;1.93;98.84;101685.53;1779334;78;25840;-79
2022/12/04 00:41:29;;;;;;;89.40;39.80;;;;;;;1.94;98.93;101684.59;1776269;78;26561;-78
2022/12/04 00:43:55;;;;;;;100.53;38.63;;;;;;;1.93;98.89;101688.64;1781834;79;25915;-79
2022/12/04 00:46:22;;;;;;;97.97;39.18;;;;;;;1.93;98.96;101701.37;1790668;79;27438;-79
2022/12/04 00:48:49;;;;;;;92.22;36.38;;;;;;;1.93;99.07;101697.42;1784169;79;25839;-79
2022/12/04 00:51:21;;;;;;;104.17;40.00;;;;;;;1.93;99.05;101684.20;1792421;79;25813;-78
2022/12/04 00:53:47;;;;;;;99.58;39.80;;;;;;;1.95;99.13;101675.70;1796719;78;26286;-79
2022/12/04 00:56:18;;;;;;;93.40;37.33;;;;;;;1.95;99.14;101676.16;1794811;78;25789;-79
2022/12/04 00:58:45;;;;;;;105.12;40.73;;;;;;;1.97;99.23;101672.94;1792601;78;27464;-78
2022/12/04 01:01:18;;;;;;;89.40;33.25;;;;;;;1.93;99.07;101676.75;1792063;79;26404;-78
2022/12/04 01:03:45;;;;;;;93.67;38.38;;;;;;;1.91;99.14;101676.86;1792484;78;25878;-79
2022/12/04 01:06:29;;;;;;;82.45;33.23;;;;;;;1.92;99.22;101677.72;1789059;79;25780;-78
2022/12/04 01:08:57;;;;;;;88.12;33.80;;;;;;;1.91;99.24;101685.25;1786361;79;26475;-79
2022/12/04 01:11:25;;;;;;;91.67;37.45;;;;;;;1.90;99.23;101675.66;1788975;78;27428;-79
2022/12/04 01:13:52;;;;;;;92.92;34.98;;;;;;;1.89;99.24;101676.12;1803141;78;25818;-79
2022/12/04 01:16:27;;;;;;;82.37;33.20;;;;;;;1.87;99.22;101681.98;1786876;79;25822;-78
2022/12/04 01:18:54;;;;;;;84.07;34.95;;;;;;;1.86;99.20;101688.20;1799308;77;25940;-80
2022/12/04 01:21:20;;;;;;;87.67;34.55;;;;;;;1.86;99.28;101687.39;1785372;79;25813;-79
2022/12/04 01:23:47;;;;;;;91.95;38.10;;;;;;;1.83;99.32;101684.47;1787744;78;28229;-79
2022/12/04 01:26:14;;;;;;;73.42;30.48;;;;;;;1.83;99.46;101692.40;1777603;78;25432;-79
2022/12/04 01:28:40;;;;;;;81.10;32.67;;;;;;;1.83;99.44;101693.72;1777378;78;25740;-79
2022/12/04 01:31:12;;;;;;;75.45;31.23;;;;;;;1.83;99.34;101698.15;1792124;78;26412;-79
2022/12/04 01:33:39;;;;;;;72.05;31.97;;;;;;;1.83;99.43;101694.19;1796063;79;26587;-79
2022/12/04 01:36:10;;;;;;;75.30;31.80;;;;;;;1.84;99.45;101697.22;1803002;77;27448;-79
2022/12/04 01:38:37;;;;;;;79.55;32.33;;;;;;;1.87;99.55;101700.48;1799796;77;25963;-79
2022/12/04 01:41:04;;;;;;;74.50;31.17;;;;;;;1.87;99.42;101691.23;1806569;78;25780;-79
2022/12/04 01:43:33;;;;;;;77.67;32.58;;;;;;;1.87;99.45;101691.23;1818641;78;25748;-79
2022/12/04 01:46:02;;;;;;;71.07;30.57;;;;;;;1.86;99.34;101682.11;1827345;76;25772;-79
2022/12/04 01:48:42;;;;;;;68.92;31.12;;;;;;;1.84;99.34;101684.00;1821062;78;27618;-79
2022/12/04 01:51:32;;;;;;;78.72;32.28;;;;;;;1.84;99.50;101679.55;1820041;78;25721;-79
2022/12/04 01:54:07;;;;;;;75.20;30.93;;;;;;;1.82;99.52;101672.20;1822498;78;25778;-79
2022/12/04 01:56:52;;;;;;;88.12;35.98;;;;;;;1.81;99.56;101669.67;1826058;77;26488;-80
2022/12/04 01:59:23;;;;;;;81.30;31.77;;;;;;;1.82;99.62;101669.56;1820153;78;26003;-79
2022/12/04 02:02:08;;;;;;;77.00;32.83;;;;;;;1.80;99.63;101656.94;1830908;76;27451;-79
2022/12/04 02:04:36;;;;;;;89.37;34.70;;;;;;;1.84;99.77;101656.27;1830073;76;25815;-81
2022/12/04 02:07:03;;;;;;;85.67;35.08;;;;;;;1.85;99.81;101660.12;1814861;77;26261;-79
2022/12/04 02:09:30;;;;;;;83.12;32.28;;;;;;;1.86;99.80;101656.50;1825583;76;25985;-79
2022/12/04 02:12:19;;;;;;;88.65;34.55;;;;;;;1.88;99.68;101664.35;1838981;76;25821;-79
2022/12/04 02:15:26;;;;;;;92.72;36.42;;;;;;;1.87;99.65;101662.64;1794789;78;28341;-79
2022/12/04 02:18:07;;;;;;;87.17;34.58;;;;;;;1.83;99.61;101665.98;1799654;77;25724;-79
2022/12/04 02:20:54;;;;;;;80.70;33.25;;;;;;;1.82;99.67;101674.02;1788211;79;26364;-79
2022/12/04 02:23:45;;;;;;;78.97;31.07;;;;;;;1.80;99.73;101669.29;1790275;78;25962;-79
2022/12/04 02:26:48;;;;;;;;;;;;;;;1.79;99.75;101667.14;1801095;78;25764;-79
2022/12/04 02:29:43;;;;;;;67.30;29.35;;;;;;;1.78;99.83;101668.55;1793728;78;27443;-79
2022/12/04 02:32:33;;;;;;;69.20;30.00;;;;;;;1.73;99.93;101657.00;1798792;78;25969;-79
2022/12/04 02:35:20;;;;;;;73.35;31.00;;;;;;;1.74;99.98;101653.40;1763737;80;25528;-80
2022/12/04 02:37:55;;;;;;;76.92;31.45;;;;;;;1.74;100.00;101654.72;1806054;78;25965;-79
2022/12/04 02:40:33;;;;;;;74.37;28.85;;;;;;;1.75;100.00;101652.93;1789271;78;25654;-79
2022/12/04 02:43:19;;;;;;;73.17;30.12;;;;;;;1.76;100.00;101662.06;1796303;79;28130;-80
2022/12/04 02:45:54;;;;;;;76.22;32.83;;;;;;;1.77;100.00;101660.27;1781931;79;26450;-79
2022/12/04 02:48:22;;;;;;;78.50;30.50;;;;;;;1.77;100.00;101661.59;1800788;79;26333;-79
2022/12/04 02:50:52;;;;;;;73.90;32.85;;;;;;;1.79;100.00;101657.90;1801374;79;26079;-80
2022/12/04 02:53:26;;;;;;;64.43;28.87;;;;;;;1.81;100.00;101657.78;1799472;79;25770;-79
2022/12/04 02:56:00;;;;;;;78.02;32.05;;;;;;;1.82;100.00;101657.67;1797716;79;28286;-79
2022/12/04 02:58:44;;;;;;;77.10;33.95;;;;;;;1.83;100.00;101658.06;1772557;79;25792;-80
2022/12/04 03:01:21;;;;;;;80.92;33.28;;;;;;;1.83;100.00;101658.06;1793809;78;25801;-79
2022/12/04 03:04:00;;;;;;;75.70;31.15;;;;;;;1.84;100.00;101657.09;1802771;79;26291;-79
2022/12/04 03:06:31;;;;;;;70.95;31.35;;;;;;;1.86;100.00;101654.36;1789930;79;26140;-79
2022/12/04 03:09:09;;;;;;;72.67;30.43;;;;;;;1.86;100.00;101661.79;1781256;79;27449;-79
2022/12/04 03:11:39;;;;;;;70.92;30.90;;;;;;;1.89;100.00;101654.13;1802639;79;26310;-80
2022/12/04 03:14:17;;;;;;;77.53;32.67;;;;;;;1.87;99.89;101650.29;1792382;78;26145;-79
2022/12/04 03:16:43;;;;;;;70.35;31.05;;;;;;;1.85;99.85;101646.05;1790369;79;26456;-79
2022/12/04 03:19:18;;;;;;;74.22;31.77;;;;;;;1.86;99.94;101648.58;1803364;78;25932;-80
2022/12/04 03:21:56;;;;;;;72.22;29.07;;;;;;;1.86;99.91;101648.58;1804048;78;27431;-79
2022/12/04 03:24:28;;;;;;;71.40;29.67;;;;;;;1.86;99.97;101646.44;1795881;78;26473;-79
2022/12/04 03:27:12;;;;;;;72.15;30.92;;;;;;;1.86;100.00;101644.63;1790352;79;26528;-80
2022/12/04 03:29:56;;;;;;;73.42;30.95;;;;;;;1.85;99.89;101640.77;1788218;78;26371;-79
2022/12/04 03:32:58;;;;;;;73.60;31.20;;;;;;;1.85;99.96;101639.45;1787781;79;26419;-79
2022/12/04 03:35:33;;;;;;;74.77;30.40;;;;;;;1.85;99.92;101641.62;1795750;78;27490;-80
2022/12/04 03:38:19;;;;;;;81.50;33.78;;;;;;;1.84;99.99;101641.74;1809847;77;25848;-79
2022/12/04 03:41:00;;;;;;;71.75;30.80;;;;;;;1.83;100.00;101634.75;1821272;77;25801;-79
2022/12/04 03:43:56;;;;;;;78.10;30.82;;;;;;;1.83;100.00;101635.60;1825890;78;26230;-79
2022/12/04 03:46:37;;;;;;;73.40;29.25;;;;;;;1.84;100.00;101633.31;1824816;78;25914;-78
2022/12/04 03:49:21;;;;;;;77.87;31.80;;;;;;;1.83;100.00;101630.79;1818765;78;27647;-79
2022/12/04 03:51:53;;;;;;;75.00;29.35;;;;;;;1.86;100.00;101633.23;1815207;78;25796;-79
2022/12/04 03:54:32;;;;;;;67.30;30.55;;;;;;;1.85;100.00;101631.06;1812892;78;25766;-79
2022/12/04 03:57:22;;;;;;;76.17;30.82;;;;;;;1.82;99.97;101622.52;1798788;79;25755;-78
2022/12/04 04:00:04;;;;;;;71.17;29.55;;;;;;;1.81;100.00;101625.63;1815720;78;26417;-80
2022/12/04 04:02:38;;;;;;;70.15;30.55;;;;;;;1.81;100.00;101630.05;1811251;78;28309;-79
2022/12/04 04:05:08;;;;;;;73.20;27.75;;;;;;;1.83;100.00;101629.00;1815912;78;26160;-79
2022/12/04 04:07:43;;;;;;;67.12;28.20;;;;;;;1.80;100.00;101615.98;1812178;78;25748;-80
2022/12/04 04:10:16;;;;;;;56.90;26.55;;;;;;;1.79;100.00;101614.78;1822318;78;26353;-79
2022/12/04 04:24:14;;;;;;;64.27;27.42;;;;;;;1.75;100.00;101631.33;1818261;78;25873;-79
2022/12/04 04:26:45;;;;;;;66.87;27.85;;;;;;;1.76;100.00;101629.52;1810647;78;25739;-79
2022/12/04 04:29:12;;;;;;;57.65;25.57;;;;;;;1.78;100.00;101628.92;1815544;78;27452;-79
2022/12/04 04:32:05;;;;;;;64.92;27.07;;;;;;;1.79;100.00;101622.24;1822178;78;25829;-79
2022/12/04 04:34:49;;;;;;;54.03;26.10;;;;;;;1.79;100.00;101622.70;1803951;78;25853;-79
2022/12/04 04:37:54;;;;;;;49.50;24.25;;;;;;;1.79;100.00;101634.59;1804239;78;26688;-80
2022/12/04 04:40:38;;;;;;;53.58;24.75;;;;;;;1.80;100.00;101637.59;1811135;78;26416;-78
2022/12/04 04:43:22;;;;;;;58.95;24.85;;;;;;;1.78;100.00;101640.81;1804386;78;28477;-78
2022/12/04 04:46:12;;;;;;;59.33;25.60;;;;;;;1.78;99.99;101650.06;1813271;78;25874;-78
2022/12/04 04:48:50;;;;;;;57.27;24.90;;;;;;;1.76;99.95;101665.17;1812700;78;26202;-78
2022/12/04 04:51:17;;;;;;;64.95;25.88;;;;;;;1.77;100.00;101657.63;1816086;78;26596;-78
2022/12/04 04:53:51;;;;;;;66.77;27.60;;;;;;;1.74;99.96;101648.58;1812725;78;25824;-78
2022/12/04 04:56:20;;;;;;;58.95;25.35;;;;;;;1.75;100.00;101641.89;1809852;78;27476;-78
2022/12/04 04:58:46;;;;;;;67.12;26.97;;;;;;;1.74;99.99;101650.76;1807529;78;25794;-78
2022/12/04 05:01:17;;;;;;;57.53;24.63;;;;;;;1.76;100.00;101659.41;1810808;78;25812;-78
2022/12/04 05:03:43;;;;;;;;;;;;;;;1.79;100.00;101643.84;1817243;78;25796;-77
2022/12/04 05:06:10;;;;;;;67.10;27.98;;;;;;;1.78;100.00;101649.59;1814802;78;25764;-77
2022/12/04 05:08:37;;;;;;;77.32;29.12;;;;;;;1.76;100.00;101642.25;1812208;78;28630;-78
2022/12/04 05:11:04;;;;;;;69.70;26.75;;;;;;;1.79;100.00;101645.16;1810761;78;25833;-78
2022/12/04 05:13:32;;;;;;;76.47;32.10;;;;;;;1.80;100.00;101642.88;1807515;78;25811;-77
2022/12/04 05:16:05;;;;;;;72.12;30.95;;;;;;;1.82;100.00;101649.75;1809834;78;26457;-78
2022/12/04 05:18:33;;;;;;;68.97;30.05;;;;;;;1.83;100.00;101655.42;1814938;78;25749;-77
2022/12/04 05:21:15;;;;;;;64.82;29.10;;;;;;;1.84;100.00;101658.41;1811730;78;27423;-77
2022/12/04 05:23:37;;;;;;;75.75;29.98;;;;;;;1.83;100.00;101657.20;1795271;78;25708;-77
2022/12/04 05:26:04;;;;;;;71.20;29.15;;;;;;;1.82;100.00;101655.03;1805633;78;25744;-77
2022/12/04 05:28:31;;;;;;;68.83;29.42;;;;;;;1.80;99.90;101647.69;1811040;78;26199;-78
2022/12/04 05:31:00;;;;;;;71.10;33.50;;;;;;;1.78;99.88;101644.31;1812491;77;25746;-78
2022/12/04 05:33:28;;;;;;;71.28;31.05;;;;;;;1.77;99.86;101638.67;1804902;78;27460;-78
2022/12/04 05:36:04;;;;;;;81.22;34.58;;;;;;;1.75;99.87;101633.97;1797149;78;25825;-78
2022/12/04 05:38:31;;;;;;;74.50;31.75;;;;;;;1.76;99.95;101640.92;1804099;78;25711;-78
2022/12/04 05:41:01;;;;;;;67.35;31.23;;;;;;;1.77;99.95;101650.56;1797299;78;26223;-78
2022/12/04 05:43:28;;;;;;;68.40;29.45;;;;;;;1.76;99.80;101658.56;1805659;78;26497;-78
2022/12/04 05:46:07;;;;;;;68.30;29.20;;;;;;;1.72;99.76;101659.26;1803254;78;28337;-78
2022/12/04 05:48:34;;;;;;;75.78;32.17;;;;;;;1.73;99.88;101654.83;1807829;78;25805;-79
2022/12/04 05:51:09;;;;;;;76.02;30.82;;;;;;;1.75;99.96;101656.42;1804608;78;25979;-79
2022/12/04 05:53:36;;;;;;;70.70;29.70;;;;;;;1.77;99.86;101666.41;1803701;78;26478;-79
2022/12/04 05:56:06;;;;;;;75.60;30.82;;;;;;;1.74;99.77;101663.96;1802667;78;25762;-78
2022/12/04 05:58:37;;;;;;;68.70;29.18;;;;;;;1.76;99.85;101652.81;1808300;78;27451;-78
2022/12/04 06:01:11;;;;;;;72.20;31.42;;;;;;;1.75;99.84;101647.18;1798175;78;25897;-78
2022/12/04 06:03:38;;;;;;;70.30;30.10;;;;;;;1.73;99.78;101660.11;1801737;78;25777;-79
2022/12/04 06:06:12;;;;;;;67.17;29.70;;;;;;;1.73;99.76;101666.25;1795568;78;25877;-78
2022/12/04 06:08:39;;;;;;;71.70;30.50;;;;;;;1.73;99.81;101675.49;1801588;78;25921;-78
2022/12/04 06:11:14;;;;;;;75.35;31.45;;;;;;;1.75;99.85;101677.55;1803740;78;27433;-78
2022/12/04 06:13:43;;;;;;;65.95;27.52;;;;;;;1.76;99.80;101679.23;1803165;78;26404;-78
2022/12/04 06:16:20;;;;;;;74.87;31.85;;;;;;;1.77;99.83;101690.18;1802616;78;25744;-78
2022/12/04 06:18:52;;;;;;;73.17;31.23;;;;;;;1.78;99.83;101685.25;1796103;78;26325;-78
2022/12/04 06:21:20;;;;;;;74.40;30.88;;;;;;;1.81;99.98;101678.45;1798651;78;25879;-78
2022/12/04 06:23:46;;;;;;;64.77;31.90;;;;;;;1.84;99.82;101682.69;1804246;78;27432;-79
2022/12/04 06:26:14;;;;;;;70.80;30.95;;;;;;;1.82;99.64;101689.88;1805812;78;25789;-78
2022/12/04 06:28:40;;;;;;;80.10;31.30;;;;;;;1.81;99.63;101685.52;1804728;78;26208;-78
2022/12/04 06:31:11;;;;;;;74.65;31.70;;;;;;;1.80;99.69;101685.14;1803376;78;25463;-80
2022/12/04 06:33:38;;;;;;;76.47;31.12;;;;;;;1.80;99.71;101693.91;1800093;78;33152;-79
2022/12/04 06:36:13;;;;;;;81.12;32.80;;;;;;;1.81;99.64;101693.45;1801129;78;27450;-79
2022/12/04 06:38:41;;;;;;;86.22;34.53;;;;;;;1.82;99.66;101692.52;1795463;78;25928;-78
2022/12/04 06:41:11;;;;;;;77.08;32.78;;;;;;;1.82;99.64;101685.41;1762863;79;25829;-78
2022/12/04 06:43:39;;;;;;;75.30;32.45;;;;;;;1.85;99.67;101686.53;1777760;79;26417;-79
2022/12/04 06:46:13;;;;;;;75.42;30.95;;;;;;;1.86;99.62;101686.89;1775640;79;25712;-78
2022/12/04 06:48:40;;;;;;;71.02;30.43;;;;;;;1.83;99.46;101697.69;1775717;79;28949;-79
2022/12/04 06:51:11;;;;;;;69.12;31.50;;;;;;;1.82;99.48;101703.08;1778905;79;26324;-78
2022/12/04 06:53:38;;;;;;;92.33;40.67;;;;;;;1.81;99.40;101697.41;1776758;79;25763;-78
2022/12/04 06:56:08;;;;;;;80.47;37.38;;;;;;;1.80;99.42;101700.52;1780225;79;25789;-79
2022/12/04 06:58:35;;;;;;;;;;;;;;;1.79;99.41;101713.38;1777897;79;25836;-79
2022/12/04 07:01:12;;;;;;;69.03;33.92;;;;;;;1.79;99.39;101705.91;1777926;79;28304;-78
2022/12/04 07:03:38;;;;;;;69.12;31.62;;;;;;;1.75;99.46;101701.33;1784299;79;25861;-78
2022/12/04 07:06:19;;;;;;;64.97;30.62;;;;;;;1.75;99.46;101709.72;1773561;79;25902;-79
2022/12/04 07:08:51;;;;;;;73.20;31.95;;;;;;;1.76;99.47;101711.39;1779777;79;35343;-78
2022/12/04 07:11:20;;;;;;;58.38;28.23;;;;;;;1.74;99.49;101705.37;1782135;80;26063;-79
2022/12/04 07:13:47;;;;;;;66.12;31.42;;;;;;;1.75;99.50;101702.64;1783988;80;28269;-78
2022/12/04 07:16:18;;;;;;;63.50;30.32;;;;;;;1.74;99.41;101700.94;1784969;79;25789;-78
2022/12/04 07:18:44;;;;;;;77.75;35.48;;;;;;;1.76;99.43;101707.42;1783048;80;25767;-78
2022/12/04 07:21:15;;;;;;;75.00;33.15;;;;;;;1.76;99.34;101702.14;1769103;79;25999;-78
2022/12/04 07:23:43;;;;;;;62.13;30.08;;;;;;;1.78;99.40;101694.96;1785900;80;25841;-78
2022/12/04 07:26:12;;;;;;;75.85;34.33;;;;;;;1.78;99.34;101701.56;1786454;79;27472;-78
2022/12/04 07:28:40;;;;;;;70.87;32.88;;;;;;;1.77;99.25;101694.61;1771294;80;25926;-78
2022/12/04 07:31:11;;;;;;;75.67;34.33;;;;;;;1.75;99.23;101692.08;1780921;80;25790;-79
2022/12/04 07:33:38;;;;;;;89.05;39.67;;;;;;;1.76;99.28;101686.30;1782122;79;25688;-78
2022/12/04 07:36:08;;;;;;;93.17;41.80;;;;;;;1.77;99.29;101690.18;1785946;79;26428;-79
2022/12/04 07:38:34;;;;;;;84.67;37.83;;;;;;;1.78;99.22;101693.64;1781066;79;28317;-77
2022/12/04 07:41:04;;;;;;;79.55;37.23;;;;;;;1.78;99.32;101694.96;1782983;79;25998;-77
2022/12/04 07:43:31;;;;;;;79.67;36.98;;;;;;;1.81;99.41;101705.34;1787607;78;25441;-78
2022/12/04 07:46:04;;;;;;;89.97;43.90;;;;;;;1.82;99.30;101704.40;1790678;78;26253;-78
2022/12/04 07:48:30;;;;;;;218.33;92.08;;;;;;;1.79;99.11;101702.80;1795051;78;25777;-78
2022/12/04 07:51:10;;;;;;;102.60;46.15;;;;;;;1.78;99.09;101702.89;1789156;79;27460;-79
2022/12/04 07:53:37;;;;;;;129.38;57.95;;;;;;;1.76;99.12;101704.78;1800794;78;26455;-78
2022/12/04 07:56:05;;;;;;;111.22;48.78;;;;;;;1.75;99.12;101700.00;1799967;78;25838;-79
2022/12/04 07:58:34;;;;;;;284.37;117.90;;;;;;;1.76;99.20;101699.04;1787945;79;25867;-78
2022/12/04 08:01:21;;;;;;;423.65;185.97;;;;;;;1.76;99.20;101697.72;1782512;79;26178;-78
2022/12/04 08:03:52;;;;;;;356.10;165.12;;;;;;;1.78;99.16;101698.92;1787543;78;28299;-78
2022/12/04 08:06:22;;;;;;;131.65;65.60;;;;;;;1.77;99.15;101706.03;1785910;79;32941;-79
2022/12/04 08:08:49;;;;;;;148.97;73.62;;;;;;;1.77;99.14;101707.81;1776135;80;26580;-78
2022/12/04 08:11:21;;;;;;;238.25;128.38;;;;;;;1.79;99.30;101711.20;1791107;78;26397;-78
2022/12/04 08:13:56;;;;;;;168.90;96.63;;;;;;;1.82;99.33;101714.47;1789697;78;25283;-77
2022/12/04 08:16:25;;;;;;;215.30;114.62;;;;;;;1.82;99.15;101715.78;1778076;79;28235;-82
2022/12/04 08:18:52;;;;;;;139.80;74.12;;;;;;;1.83;99.13;101708.72;1774774;79;25767;-82
2022/12/04 08:21:23;;;;;;;99.62;57.85;;;;;;;1.85;99.15;101701.06;1786783;79;25340;-82
2022/12/04 08:23:51;;;;;;;82.37;41.83;;;;;;;1.87;99.15;101698.31;1790121;79;31655;-82
2022/12/04 08:26:19;;;;;;;151.75;62.78;;;;;;;1.87;99.10;101697.84;1807505;77;25258;-82
2022/12/04 08:28:46;;;;;;;79.92;40.67;;;;;;;1.89;99.06;101694.61;1801929;77;27450;-82
2022/12/04 08:31:17;;;;;;;69.82;34.43;;;;;;;1.88;98.91;101694.23;1795640;77;26077;-81
2022/12/04 08:33:45;;;;;;;159.57;93.58;;;;;;;1.89;98.92;101697.73;1794678;77;25763;-83
2022/12/04 08:36:16;;;;;;;166.12;89.70;;;;;;;1.90;98.99;101694.15;1791688;79;26417;-82
2022/12/04 08:38:42;;;;;;;102.55;55.58;;;;;;;1.88;98.78;101692.91;1793499;77;25210;-78
2022/12/04 08:41:13;;;;;;;97.10;58.02;;;;;;;1.88;98.85;101690.27;1809589;77;27539;-79
2022/12/04 08:43:40;;;;;;;91.42;47.00;;;;;;;1.90;98.91;101691.04;1811282;78;25753;-78
2022/12/04 08:46:13;;;;;;;80.97;41.98;;;;;;;1.90;98.88;101691.51;1798419;78;25312;-86
2022/12/04 08:48:39;;;;;;;76.55;41.00;;;;;;;1.90;98.86;101698.97;1796867;78;25806;-86
2022/12/04 08:51:09;;;;;;;75.45;42.20;;;;;;;1.92;98.95;101701.49;1822009;76;25563;-89
2022/12/04 08:53:35;;;;;;;75.62;38.63;;;;;;;1.93;98.83;101695.23;1819999;77;27504;-82
2022/12/04 08:56:02;;;;;;;75.60;39.48;;;;;;;1.92;98.72;101699.70;1821077;77;25756;-83
2022/12/04 08:58:29;;;;;;;99.17;55.52;;;;;;;1.93;98.73;101701.84;1842483;77;25833;-82
2022/12/04 09:00:55;;;;;;;92.47;50.03;;;;;;;1.94;98.69;101706.20;1835672;77;26324;-82
2022/12/04 09:03:22;;;;;;;76.47;38.75;;;;;;;1.93;98.64;101713.27;1827262;76;25334;-82
2022/12/04 09:05:48;;;;;;;76.92;39.33;;;;;;;1.92;98.53;101702.34;1823548;77;27454;-82
2022/12/04 09:08:16;;;;;;;63.90;34.53;;;;;;;1.94;98.55;101703.09;1823025;77;26146;-82
2022/12/04 09:10:43;;;;;;;66.37;31.30;;;;;;;1.92;98.40;101701.02;1784517;78;25862;-82
2022/12/04 09:13:09;;;;;;;79.60;36.83;;;;;;;1.90;98.41;101706.89;1809450;78;25827;-82
2022/12/04 09:15:39;;;;;;;112.47;62.93;;;;;;;1.89;98.37;101708.30;1807871;78;26475;-82
2022/12/04 09:18:07;;;;;;;76.00;38.70;;;;;;;1.91;98.54;101710.36;1815006;78;27448;-82
2022/12/04 09:20:33;;;;;;;68.75;33.23;;;;;;;1.93;98.60;101705.34;1807434;78;25705;-82
2022/12/04 09:23:02;;;;;;;78.05;43.58;;;;;;;1.93;98.43;101711.09;1807791;78;25717;-83
2022/12/04 09:25:28;;;;;;;67.30;33.18;;;;;;;1.94;98.45;101710.16;1813326;78;25889;-82
2022/12/04 09:27:54;;;;;;;61.48;32.50;;;;;;;1.93;98.37;101701.37;1814223;78;25877;-82
2022/12/04 09:30:21;;;;;;;77.00;35.92;;;;;;;1.93;98.41;101702.70;1804020;78;27448;-82
2022/12/04 09:32:47;;;;;;;70.35;33.95;;;;;;;1.97;98.61;101702.86;1807180;78;26113;-82
2022/12/04 09:35:13;;;;;;;64.50;32.15;;;;;;;1.99;98.58;101700.95;1806692;78;25745;-82
2022/12/04 09:37:40;;;;;;;61.63;32.20;;;;;;;2.01;98.54;101692.95;1799906;78;26696;-81
2022/12/04 09:40:08;;;;;;;68.22;34.20;;;;;;;1.99;98.28;101686.42;1805349;78;26572;-82
2022/12/04 09:42:45;;;;;;;69.30;37.90;;;;;;;2.00;98.31;101681.98;1801807;78;27434;-82
2022/12/04 09:45:18;;;;;;;62.83;33.33;;;;;;;1.98;98.17;101681.25;1799523;78;25730;-82
2022/12/04 09:47:48;;;;;;;67.37;34.38;;;;;;;1.98;98.17;101681.25;1797558;79;25995;-82
2022/12/04 09:50:22;;;;;;;65.60;35.75;;;;;;;1.97;98.15;101685.68;1784464;78;25609;-81
2022/12/04 09:53:02;;;;;;;61.70;32.33;;;;;;;1.97;98.30;101682.19;1761133;79;25613;-81
2022/12/04 09:55:57;;;;;;;63.08;31.85;;;;;;;2.00;98.49;101678.88;1807688;78;27647;-81
2022/12/04 09:58:27;;;;;;;60.85;31.33;;;;;;;2.03;98.47;101673.86;1799394;78;25893;-82
2022/12/04 10:00:54;;;;;;;;;;;;;;;2.06;98.50;101675.81;1808582;77;25773;-78
2022/12/04 10:03:25;;;;;;;62.33;30.35;;;;;;;2.08;98.45;101673.05;1811795;77;25786;-78
2022/12/04 10:06:23;;;;;;;60.80;31.93;;;;;;;2.09;98.42;101671.64;1778922;79;25873;-82
2022/12/04 10:12:37;;;;;;;61.42;32.70;;;;;;;2.14;98.29;101658.08;1785498;78;27373;-83
2022/12/04 10:15:38;;;;;;;57.38;29.02;;;;;;;2.15;98.29;101662.43;1810290;78;25307;-90
2022/12/04 10:18:18;;;;;;;57.75;29.10;;;;;;;2.17;98.27;101658.73;1804223;78;25880;-89
2022/12/04 10:21:08;;;;;;;56.13;30.27;;;;;;;2.18;98.26;101653.80;1813124;78;25265;-80
2022/12/04 10:24:07;;;;;;;63.87;32.13;;;;;;;2.18;98.20;101653.80;1812012;77;27471;-80
2022/12/04 10:26:40;;;;;;;60.28;29.82;;;;;;;2.22;98.20;101661.88;1811659;77;26366;-91
2022/12/04 10:29:17;;;;;;;64.77;33.63;;;;;;;2.22;98.06;101655.77;1805813;77;25318;-83
2022/12/04 10:31:45;;;;;;;69.55;35.23;;;;;;;2.22;97.99;101659.23;1808572;78;25902;-80
2022/12/04 10:34:19;;;;;;;66.35;38.10;;;;;;;2.26;98.13;101651.95;1798876;79;25888;-89
2022/12/04 10:36:52;;;;;;;60.98;32.53;;;;;;;2.30;98.12;101649.46;1775170;79;27519;-79
2022/12/04 10:39:27;;;;;;;58.30;30.68;;;;;;;2.33;98.09;101647.94;1796254;78;25277;-79
2022/12/04 10:42:08;;;;;;;63.28;32.13;;;;;;;2.30;97.58;101642.38;1822233;78;25511;-89
2022/12/04 10:44:34;;;;;;;59.10;31.75;;;;;;;2.30;97.73;101645.03;1813776;78;25817;-78
2022/12/04 10:47:04;;;;;;;58.30;31.00;;;;;;;2.28;97.63;101645.61;1767357;79;25987;-85
2022/12/04 10:49:34;;;;;;;55.92;29.45;;;;;;;2.26;97.47;101641.38;1798264;79;28510;-78
2022/12/04 10:52:02;;;;;;;63.73;32.30;;;;;;;2.25;97.53;101644.50;1777072;78;25885;-78
2022/12/04 10:54:49;;;;;;;73.75;36.95;;;;;;;2.25;97.57;101637.03;1802106;78;26027;-77
2022/12/04 10:57:15;;;;;;;63.85;31.70;;;;;;;2.25;97.63;101640.53;1804054;78;26059;-84
2022/12/04 10:59:55;;;;;;;67.97;33.38;;;;;;;2.25;97.53;101644.50;1813701;77;25774;-87
2022/12/04 11:02:25;;;;;;;66.72;35.98;;;;;;;2.28;97.66;101636.83;1817798;77;27458;-89
2022/12/04 11:04:55;;;;;;;;;;;;;;;2.32;97.80;101629.90;1812855;78;25942;-87
2022/12/04 11:07:30;;;;;;;60.25;30.95;;;;;;;2.36;97.75;101633.16;1808678;78;25783;-87
2022/12/04 11:10:08;;;;;;;60.03;31.62;;;;;;;2.36;97.69;101630.52;1800014;78;26176;-80
2022/12/04 11:12:34;;;;;;;76.33;41.50;;;;;;;2.36;97.51;101615.97;1815033;78;25874;-87
2022/12/04 11:15:08;;;;;;;93.45;54.93;;;;;;;2.37;97.49;101616.36;1809925;78;28235;-82
2022/12/04 11:17:35;;;;;;;170.62;104.30;;;;;;;2.39;97.48;101620.20;1795019;78;25764;-81
2022/12/04 11:20:19;;;;;;;124.12;63.68;;;;;;;2.39;97.48;101618.41;1808220;78;26383;-82
2022/12/04 11:22:50;;;;;;;83.45;46.92;;;;;;;2.43;97.58;101626.95;1796429;78;25960;-85
2022/12/04 11:25:19;;;;;;;62.58;34.63;;;;;;;2.45;97.40;101625.90;1792733;77;25822;-79
2022/12/04 11:27:53;;;;;;;61.35;33.13;;;;;;;2.45;97.39;101619.76;1788000;78;27453;-86
2022/12/04 11:30:36;;;;;;;64.47;36.60;;;;;;;2.46;97.37;101621.47;1818135;77;25828;-84
2022/12/04 11:33:10;;;;;;;81.67;45.55;;;;;;;2.46;97.19;101619.64;1811726;78;25968;-84
2022/12/04 11:35:37;;;;;;;70.40;39.15;;;;;;;2.46;97.28;101622.28;1823807;78;25825;-80
2022/12/04 11:38:16;;;;;;;68.40;36.00;;;;;;;2.49;97.30;101619.91;1800124;78;25841;-79
2022/12/04 11:40:55;;;;;;;58.92;32.80;;;;;;;2.51;97.33;101616.67;1797835;78;27577;-81
2022/12/04 11:43:32;;;;;;;60.10;34.45;;;;;;;2.51;97.10;101614.88;1806271;78;25785;-87
2022/12/04 11:46:06;;;;;;;56.42;31.97;;;;;;;2.50;97.09;101611.88;1802032;78;26426;-79
2022/12/04 11:48:43;;;;;;;52.88;31.75;;;;;;;2.51;96.99;101613.55;1798318;78;25959;-79
2022/12/04 11:51:30;;;;;;;53.85;29.35;;;;;;;2.49;96.82;101604.03;1799135;79;26415;-82
2022/12/04 11:54:38;;;;;;;49.83;27.82;;;;;;;2.49;96.90;101602.71;1817956;78;27465;-85
2022/12/04 11:57:45;;;;;;;55.73;29.48;;;;;;;2.48;96.81;101601.05;1825984;78;26489;-87
2022/12/04 12:00:22;;;;;;;49.13;30.68;;;;;;;2.47;96.83;101613.41;1812497;78;25731;-79